sensor_id;sensor_type;location;lat;lon;timestamp;temperature;humidity
47660;DHT22;33403;43.608;1.458;2023-05-23T00:01:14;17.20;99.90
47660;DHT22;33403;43.608;1.458;2023-05-23T00:03:41;17.20;99.90
47660;DHT22;33403;43.608;1.458;2023-05-23T00:06:07;17.20;99.90
47660;DHT22;33403;43.608;1.458;2023-05-23T00:08:33;17.10;99.90
47660;DHT22;33403;43.608;1.458;2023-05-23T00:10:59;17.10;99.90
47660;DHT22;33403;43.608;1.458;2023-05-23T00:13:24;17.10;99.90
47660;DHT22;33403;43.608;1.458;2023-05-23T00:15:51;17.10;99.90
47660;DHT22;33403;43.608;1.458;2023-05-23T00:18:17;17.10;99.90
47660;DHT22;33403;43.608;1.458;2023-05-23T00:20:43;17.10;99.90
47660;DHT22;33403;43.608;1.458;2023-05-23T00:23:10;17.10;99.90
47660;DHT22;33403;43.608;1.458;2023-05-23T00:25:38;17.10;99.90
47660;DHT22;33403;43.608;1.458;2023-05-23T00:28:05;17.10;99.90
47660;DHT22;33403;43.608;1.458;2023-05-23T00:30:32;17.10;99.90
47660;DHT22;33403;43.608;1.458;2023-05-23T00:32:58;17.10;99.90
47660;DHT22;33403;43.608;1.458;2023-05-23T00:35:25;17.10;99.90
47660;DHT22;33403;43.608;1.458;2023-05-23T00:37:51;17.10;99.90
47660;DHT22;33403;43.608;1.458;2023-05-23T00:40:17;17.10;99.90
47660;DHT22;33403;43.608;1.458;2023-05-23T00:42:43;17.10;99.90
47660;DHT22;33403;43.608;1.458;2023-05-23T00:45:09;17.10;99.90
47660;DHT22;33403;43.608;1.458;2023-05-23T00:47:40;17.00;99.90
47660;DHT22;33403;43.608;1.458;2023-05-23T00:50:11;17.00;99.90
47660;DHT22;33403;43.608;1.458;2023-05-23T00:52:39;17.00;99.90
47660;DHT22;33403;43.608;1.458;2023-05-23T00:55:06;17.00;99.90
47660;DHT22;33403;43.608;1.458;2023-05-23T00:57:33;16.90;99.90
47660;DHT22;33403;43.608;1.458;2023-05-23T01:00:01;16.90;99.90
47660;DHT22;33403;43.608;1.458;2023-05-23T01:02:26;16.90;99.90
47660;DHT22;33403;43.608;1.458;2023-05-23T01:04:53;16.80;99.90
47660;DHT22;33403;43.608;1.458;2023-05-23T01:07:20;16.80;99.90
47660;DHT22;33403;43.608;1.458;2023-05-23T01:09:46;16.70;99.90
47660;DHT22;33403;43.608;1.458;2023-05-23T01:14:46;16.70;99.90
47660;DHT22;33403;43.608;1.458;2023-05-23T01:17:18;16.70;99.90
47660;DHT22;33403;43.608;1.458;2023-05-23T01:28:18;16.60;99.90
47660;DHT22;33403;43.608;1.458;2023-05-23T01:30:45;16.60;99.90
47660;DHT22;33403;43.608;1.458;2023-05-23T01:33:15;16.50;99.90
47660;DHT22;33403;43.608;1.458;2023-05-23T01:35:42;16.50;99.90
47660;DHT22;33403;43.608;1.458;2023-05-23T01:38:08;16.50;99.90
47660;DHT22;33403;43.608;1.458;2023-05-23T01:40:35;16.50;99.90
47660;DHT22;33403;43.608;1.458;2023-05-23T01:43:01;16.50;99.90
47660;DHT22;33403;43.608;1.458;2023-05-23T01:45:28;16.50;99.90
47660;DHT22;33403;43.608;1.458;2023-05-23T01:47:55;16.40;99.90
47660;DHT22;33403;43.608;1.458;2023-05-23T01:50:22;16.50;99.90
47660;DHT22;33403;43.608;1.458;2023-05-23T01:52:48;16.50;99.90
47660;DHT22;33403;43.608;1.458;2023-05-23T01:55:16;16.50;99.90
47660;DHT22;33403;43.608;1.458;2023-05-23T01:57:49;16.50;99.90
47660;DHT22;33403;43.608;1.458;2023-05-23T02:00:15;16.40;99.90
47660;DHT22;33403;43.608;1.458;2023-05-23T02:02:41;16.40;99.90
47660;DHT22;33403;43.608;1.458;2023-05-23T02:05:08;16.40;99.90
47660;DHT22;33403;43.608;1.458;2023-05-23T02:07:34;16.40;99.90
47660;DHT22;33403;43.608;1.458;2023-05-23T02:10:00;16.40;99.90
47660;DHT22;33403;43.608;1.458;2023-05-23T02:12:26;16.40;99.90
47660;DHT22;33403;43.608;1.458;2023-05-23T02:14:53;16.40;99.90
47660;DHT22;33403;43.608;1.458;2023-05-23T02:17:19;16.40;99.90
47660;DHT22;33403;43.608;1.458;2023-05-23T02:19:46;16.30;99.90
47660;DHT22;33403;43.608;1.458;2023-05-23T02:22:12;16.30;99.90
47660;DHT22;33403;43.608;1.458;2023-05-23T02:24:38;16.30;99.90
47660;DHT22;33403;43.608;1.458;2023-05-23T02:27:04;16.30;99.90
47660;DHT22;33403;43.608;1.458;2023-05-23T02:29:30;16.20;99.90
47660;DHT22;33403;43.608;1.458;2023-05-23T02:31:56;16.20;99.90
47660;DHT22;33403;43.608;1.458;2023-05-23T02:34:21;16.20;99.90
47660;DHT22;33403;43.608;1.458;2023-05-23T02:36:47;16.20;99.90
47660;DHT22;33403;43.608;1.458;2023-05-23T02:39:12;16.10;99.90
47660;DHT22;33403;43.608;1.458;2023-05-23T02:41:38;16.10;99.90
47660;DHT22;33403;43.608;1.458;2023-05-23T02:44:04;16.10;99.90
47660;DHT22;33403;43.608;1.458;2023-05-23T02:46:29;16.10;99.90
47660;DHT22;33403;43.608;1.458;2023-05-23T02:48:55;16.10;99.90
47660;DHT22;33403;43.608;1.458;2023-05-23T02:51:21;16.10;99.90
47660;DHT22;33403;43.608;1.458;2023-05-23T02:53:46;16.00;99.90
47660;DHT22;33403;43.608;1.458;2023-05-23T02:56:12;16.00;99.90
47660;DHT22;33403;43.608;1.458;2023-05-23T02:58:38;16.00;99.90
47660;DHT22;33403;43.608;1.458;2023-05-23T03:01:04;16.00;99.90
47660;DHT22;33403;43.608;1.458;2023-05-23T03:03:31;16.00;99.90
47660;DHT22;33403;43.608;1.458;2023-05-23T03:05:57;15.90;99.90
47660;DHT22;33403;43.608;1.458;2023-05-23T03:08:23;15.90;99.90
47660;DHT22;33403;43.608;1.458;2023-05-23T03:10:48;15.90;99.90
47660;DHT22;33403;43.608;1.458;2023-05-23T03:13:14;15.90;99.90
47660;DHT22;33403;43.608;1.458;2023-05-23T03:15:40;15.90;99.90
47660;DHT22;33403;43.608;1.458;2023-05-23T03:18:06;15.80;99.90
47660;DHT22;33403;43.608;1.458;2023-05-23T03:20:32;15.80;99.90
47660;DHT22;33403;43.608;1.458;2023-05-23T03:22:58;15.80;99.90
47660;DHT22;33403;43.608;1.458;2023-05-23T03:25:23;15.80;99.90
47660;DHT22;33403;43.608;1.458;2023-05-23T03:27:49;15.80;99.90
47660;DHT22;33403;43.608;1.458;2023-05-23T03:30:15;15.80;99.90
47660;DHT22;33403;43.608;1.458;2023-05-23T03:32:40;15.70;99.90
47660;DHT22;33403;43.608;1.458;2023-05-23T03:35:07;15.70;99.90
47660;DHT22;33403;43.608;1.458;2023-05-23T03:37:32;15.70;99.90
47660;DHT22;33403;43.608;1.458;2023-05-23T03:39:58;15.70;99.90
47660;DHT22;33403;43.608;1.458;2023-05-23T03:42:24;15.60;99.90
47660;DHT22;33403;43.608;1.458;2023-05-23T03:44:49;15.60;99.90
47660;DHT22;33403;43.608;1.458;2023-05-23T03:47:15;15.60;99.90
47660;DHT22;33403;43.608;1.458;2023-05-23T03:49:41;15.50;99.90
47660;DHT22;33403;43.608;1.458;2023-05-23T03:52:06;15.50;99.90
47660;DHT22;33403;43.608;1.458;2023-05-23T03:54:32;15.40;99.90
47660;DHT22;33403;43.608;1.458;2023-05-23T03:56:57;15.30;99.90
47660;DHT22;33403;43.608;1.458;2023-05-23T03:59:23;15.30;99.90
47660;DHT22;33403;43.608;1.458;2023-05-23T04:01:49;15.30;99.90
47660;DHT22;33403;43.608;1.458;2023-05-23T04:04:14;15.30;99.90
47660;DHT22;33403;43.608;1.458;2023-05-23T04:06:41;15.30;99.90
47660;DHT22;33403;43.608;1.458;2023-05-23T04:09:07;15.30;99.90
47660;DHT22;33403;43.608;1.458;2023-05-23T04:11:33;15.20;99.90
47660;DHT22;33403;43.608;1.458;2023-05-23T04:13:59;15.20;99.90
47660;DHT22;33403;43.608;1.458;2023-05-23T04:16:26;15.20;99.90
47660;DHT22;33403;43.608;1.458;2023-05-23T04:18:52;15.20;99.90
47660;DHT22;33403;43.608;1.458;2023-05-23T04:21:18;15.20;99.90
47660;DHT22;33403;43.608;1.458;2023-05-23T04:23:44;15.20;99.90
47660;DHT22;33403;43.608;1.458;2023-05-23T04:26:10;15.20;99.90
47660;DHT22;33403;43.608;1.458;2023-05-23T04:28:37;15.20;99.90
47660;DHT22;33403;43.608;1.458;2023-05-23T04:31:04;15.20;99.90
47660;DHT22;33403;43.608;1.458;2023-05-23T04:33:30;15.20;99.90
47660;DHT22;33403;43.608;1.458;2023-05-23T04:35:55;15.20;99.90
47660;DHT22;33403;43.608;1.458;2023-05-23T04:38:22;15.20;99.90
47660;DHT22;33403;43.608;1.458;2023-05-23T04:40:50;15.20;99.90
47660;DHT22;33403;43.608;1.458;2023-05-23T04:43:17;15.20;99.90
47660;DHT22;33403;43.608;1.458;2023-05-23T04:45:44;15.20;99.90
47660;DHT22;33403;43.608;1.458;2023-05-23T04:48:10;15.30;99.90
47660;DHT22;33403;43.608;1.458;2023-05-23T04:50:38;15.30;99.90
47660;DHT22;33403;43.608;1.458;2023-05-23T04:53:05;15.30;99.90
47660;DHT22;33403;43.608;1.458;2023-05-23T04:55:30;15.40;99.90
47660;DHT22;33403;43.608;1.458;2023-05-23T04:57:56;15.40;99.90
47660;DHT22;33403;43.608;1.458;2023-05-23T05:00:22;15.40;99.90
47660;DHT22;33403;43.608;1.458;2023-05-23T05:02:48;15.50;99.90
47660;DHT22;33403;43.608;1.458;2023-05-23T05:05:13;15.50;99.90
47660;DHT22;33403;43.608;1.458;2023-05-23T05:07:39;15.50;99.90
47660;DHT22;33403;43.608;1.458;2023-05-23T05:10:05;15.60;99.90
47660;DHT22;33403;43.608;1.458;2023-05-23T05:12:31;15.60;99.90
47660;DHT22;33403;43.608;1.458;2023-05-23T05:14:57;15.70;99.90
47660;DHT22;33403;43.608;1.458;2023-05-23T05:17:22;15.70;99.90
47660;DHT22;33403;43.608;1.458;2023-05-23T05:19:49;15.80;99.90
47660;DHT22;33403;43.608;1.458;2023-05-23T05:22:14;15.80;99.90
47660;DHT22;33403;43.608;1.458;2023-05-23T05:24:40;15.90;99.90
47660;DHT22;33403;43.608;1.458;2023-05-23T05:27:06;15.90;99.90
47660;DHT22;33403;43.608;1.458;2023-05-23T05:29:33;16.00;99.90
47660;DHT22;33403;43.608;1.458;2023-05-23T05:31:59;16.00;99.90
47660;DHT22;33403;43.608;1.458;2023-05-23T05:34:25;16.10;99.90
47660;DHT22;33403;43.608;1.458;2023-05-23T05:36:52;16.10;99.90
47660;DHT22;33403;43.608;1.458;2023-05-23T05:39:22;16.20;99.90
47660;DHT22;33403;43.608;1.458;2023-05-23T05:41:48;16.20;99.90
47660;DHT22;33403;43.608;1.458;2023-05-23T05:44:14;16.20;99.90
47660;DHT22;33403;43.608;1.458;2023-05-23T05:46:39;16.30;99.90
47660;DHT22;33403;43.608;1.458;2023-05-23T05:49:05;16.30;99.90
47660;DHT22;33403;43.608;1.458;2023-05-23T05:51:31;16.30;99.90
47660;DHT22;33403;43.608;1.458;2023-05-23T05:53:56;16.30;99.90
47660;DHT22;33403;43.608;1.458;2023-05-23T05:56:22;16.40;99.90
47660;DHT22;33403;43.608;1.458;2023-05-23T05:58:48;16.40;99.90
47660;DHT22;33403;43.608;1.458;2023-05-23T06:01:13;16.40;99.90
47660;DHT22;33403;43.608;1.458;2023-05-23T06:03:39;16.30;99.90
47660;DHT22;33403;43.608;1.458;2023-05-23T06:06:05;16.40;99.90
47660;DHT22;33403;43.608;1.458;2023-05-23T06:08:33;16.40;99.90
47660;DHT22;33403;43.608;1.458;2023-05-23T06:10:58;16.40;99.90
47660;DHT22;33403;43.608;1.458;2023-05-23T06:13:24;16.40;99.90
47660;DHT22;33403;43.608;1.458;2023-05-23T06:15:50;16.40;99.90
47660;DHT22;33403;43.608;1.458;2023-05-23T06:18:16;16.40;99.90
47660;DHT22;33403;43.608;1.458;2023-05-23T06:20:41;16.40;99.90
47660;DHT22;33403;43.608;1.458;2023-05-23T06:23:07;16.50;99.90
47660;DHT22;33403;43.608;1.458;2023-05-23T06:25:33;16.50;99.90
47660;DHT22;33403;43.608;1.458;2023-05-23T06:27:59;16.50;99.90
47660;DHT22;33403;43.608;1.458;2023-05-23T06:30:25;16.60;99.90
47660;DHT22;33403;43.608;1.458;2023-05-23T06:32:50;16.60;99.90
47660;DHT22;33403;43.608;1.458;2023-05-23T06:35:16;16.80;99.90
47660;DHT22;33403;43.608;1.458;2023-05-23T06:37:42;16.80;99.90
47660;DHT22;33403;43.608;1.458;2023-05-23T06:40:11;16.80;99.90
47660;DHT22;33403;43.608;1.458;2023-05-23T06:42:38;16.80;99.90
47660;DHT22;33403;43.608;1.458;2023-05-23T06:45:04;16.80;99.90
47660;DHT22;33403;43.608;1.458;2023-05-23T06:47:30;16.80;99.90
47660;DHT22;33403;43.608;1.458;2023-05-23T06:49:55;16.90;99.90
47660;DHT22;33403;43.608;1.458;2023-05-23T06:52:21;16.90;99.90
47660;DHT22;33403;43.608;1.458;2023-05-23T06:54:47;16.90;99.90
47660;DHT22;33403;43.608;1.458;2023-05-23T06:57:12;17.00;99.90
47660;DHT22;33403;43.608;1.458;2023-05-23T06:59:38;17.00;99.90
47660;DHT22;33403;43.608;1.458;2023-05-23T07:02:04;17.00;99.90
47660;DHT22;33403;43.608;1.458;2023-05-23T07:04:29;17.00;99.90
47660;DHT22;33403;43.608;1.458;2023-05-23T07:06:55;17.00;99.90
47660;DHT22;33403;43.608;1.458;2023-05-23T07:09:21;16.90;99.90
47660;DHT22;33403;43.608;1.458;2023-05-23T07:11:46;17.00;99.90
47660;DHT22;33403;43.608;1.458;2023-05-23T07:14:12;17.00;99.90
47660;DHT22;33403;43.608;1.458;2023-05-23T07:16:37;17.00;99.90
47660;DHT22;33403;43.608;1.458;2023-05-23T07:19:03;17.10;99.90
47660;DHT22;33403;43.608;1.458;2023-05-23T07:21:29;17.10;99.90
47660;DHT22;33403;43.608;1.458;2023-05-23T07:23:56;17.20;99.90
47660;DHT22;33403;43.608;1.458;2023-05-23T07:26:21;17.30;99.90
47660;DHT22;33403;43.608;1.458;2023-05-23T07:28:47;17.40;99.90
47660;DHT22;33403;43.608;1.458;2023-05-23T07:31:13;17.40;99.90
47660;DHT22;33403;43.608;1.458;2023-05-23T07:33:38;17.50;99.90
47660;DHT22;33403;43.608;1.458;2023-05-23T07:36:04;17.60;99.90
47660;DHT22;33403;43.608;1.458;2023-05-23T07:38:30;17.70;99.90
47660;DHT22;33403;43.608;1.458;2023-05-23T07:40:56;17.70;99.90
47660;DHT22;33403;43.608;1.458;2023-05-23T07:43:21;17.80;99.90
47660;DHT22;33403;43.608;1.458;2023-05-23T07:45:47;17.80;99.90
47660;DHT22;33403;43.608;1.458;2023-05-23T07:48:12;17.90;99.90
47660;DHT22;33403;43.608;1.458;2023-05-23T07:50:41;17.90;99.90
47660;DHT22;33403;43.608;1.458;2023-05-23T07:53:07;18.00;99.90
47660;DHT22;33403;43.608;1.458;2023-05-23T07:55:32;18.10;99.90
47660;DHT22;33403;43.608;1.458;2023-05-23T07:57:58;18.10;99.90
47660;DHT22;33403;43.608;1.458;2023-05-23T08:00:23;18.00;99.90
47660;DHT22;33403;43.608;1.458;2023-05-23T08:02:49;18.00;99.90
47660;DHT22;33403;43.608;1.458;2023-05-23T08:05:15;18.00;99.90
47660;DHT22;33403;43.608;1.458;2023-05-23T08:07:41;18.10;99.90
47660;DHT22;33403;43.608;1.458;2023-05-23T08:10:07;18.20;99.90
47660;DHT22;33403;43.608;1.458;2023-05-23T08:12:33;18.50;99.90
47660;DHT22;33403;43.608;1.458;2023-05-23T08:14:58;18.60;99.90
47660;DHT22;33403;43.608;1.458;2023-05-23T08:17:24;18.70;99.90
47660;DHT22;33403;43.608;1.458;2023-05-23T08:19:50;18.90;99.90
47660;DHT22;33403;43.608;1.458;2023-05-23T08:22:15;19.00;99.90
47660;DHT22;33403;43.608;1.458;2023-05-23T08:24:41;19.10;99.90
47660;DHT22;33403;43.608;1.458;2023-05-23T08:27:07;19.30;99.90
47660;DHT22;33403;43.608;1.458;2023-05-23T08:29:32;19.50;99.90
47660;DHT22;33403;43.608;1.458;2023-05-23T08:31:59;19.50;99.90
47660;DHT22;33403;43.608;1.458;2023-05-23T08:34:25;19.60;99.90
47660;DHT22;33403;43.608;1.458;2023-05-23T08:36:51;19.70;99.90
47660;DHT22;33403;43.608;1.458;2023-05-23T08:39:17;19.70;99.90
47660;DHT22;33403;43.608;1.458;2023-05-23T08:41:43;19.50;99.90
47660;DHT22;33403;43.608;1.458;2023-05-23T08:44:09;19.40;99.90
47660;DHT22;33403;43.608;1.458;2023-05-23T08:46:44;19.50;99.90
47660;DHT22;33403;43.608;1.458;2023-05-23T08:49:10;19.70;99.90
47660;DHT22;33403;43.608;1.458;2023-05-23T08:51:41;19.80;99.90
47660;DHT22;33403;43.608;1.458;2023-05-23T08:54:07;19.80;99.90
47660;DHT22;33403;43.608;1.458;2023-05-23T08:56:37;20.00;99.90
47660;DHT22;33403;43.608;1.458;2023-05-23T08:59:03;20.30;99.90
47660;DHT22;33403;43.608;1.458;2023-05-23T09:01:29;20.40;99.90
47660;DHT22;33403;43.608;1.458;2023-05-23T09:03:55;20.50;99.90
47660;DHT22;33403;43.608;1.458;2023-05-23T09:06:24;20.50;99.90
47660;DHT22;33403;43.608;1.458;2023-05-23T09:08:50;20.70;99.90
47660;DHT22;33403;43.608;1.458;2023-05-23T09:11:16;20.90;99.90
47660;DHT22;33403;43.608;1.458;2023-05-23T09:13:42;21.00;99.90
47660;DHT22;33403;43.608;1.458;2023-05-23T09:16:11;21.10;99.90
47660;DHT22;33403;43.608;1.458;2023-05-23T09:18:38;21.30;99.90
47660;DHT22;33403;43.608;1.458;2023-05-23T09:21:04;21.20;99.90
47660;DHT22;33403;43.608;1.458;2023-05-23T09:23:31;21.20;99.90
47660;DHT22;33403;43.608;1.458;2023-05-23T09:26:05;21.30;99.90
47660;DHT22;33403;43.608;1.458;2023-05-23T09:28:32;21.30;99.90
47660;DHT22;33403;43.608;1.458;2023-05-23T09:30:59;21.30;99.90
47660;DHT22;33403;43.608;1.458;2023-05-23T09:33:48;21.30;99.90
47660;DHT22;33403;43.608;1.458;2023-05-23T09:36:15;21.10;99.90
47660;DHT22;33403;43.608;1.458;2023-05-23T09:38:45;21.20;99.90
47660;DHT22;33403;43.608;1.458;2023-05-23T09:41:12;21.00;99.90
47660;DHT22;33403;43.608;1.458;2023-05-23T09:43:39;20.70;99.90
47660;DHT22;33403;43.608;1.458;2023-05-23T09:46:11;20.70;99.90
47660;DHT22;33403;43.608;1.458;2023-05-23T09:48:37;20.80;99.90
47660;DHT22;33403;43.608;1.458;2023-05-23T09:51:08;21.10;99.90
47660;DHT22;33403;43.608;1.458;2023-05-23T09:53:34;21.30;99.90
47660;DHT22;33403;43.608;1.458;2023-05-23T09:56:01;21.20;99.90
47660;DHT22;33403;43.608;1.458;2023-05-23T09:58:28;21.50;99.90
47660;DHT22;33403;43.608;1.458;2023-05-23T10:00:55;21.60;99.90
47660;DHT22;33403;43.608;1.458;2023-05-23T10:03:27;21.50;99.90
47660;DHT22;33403;43.608;1.458;2023-05-23T10:06:00;21.50;99.90
47660;DHT22;33403;43.608;1.458;2023-05-23T10:08:44;21.50;99.90
47660;DHT22;33403;43.608;1.458;2023-05-23T10:13:44;21.90;99.90
47660;DHT22;33403;43.608;1.458;2023-05-23T10:18:55;21.80;99.90
47660;DHT22;33403;43.608;1.458;2023-05-23T10:21:28;22.00;99.90
47660;DHT22;33403;43.608;1.458;2023-05-23T10:24:00;22.10;99.90
47660;DHT22;33403;43.608;1.458;2023-05-23T10:26:28;22.20;99.90
47660;DHT22;33403;43.608;1.458;2023-05-23T10:28:54;22.10;99.90
47660;DHT22;33403;43.608;1.458;2023-05-23T10:31:21;22.00;99.90
47660;DHT22;33403;43.608;1.458;2023-05-23T10:36:57;22.40;99.90
47660;DHT22;33403;43.608;1.458;2023-05-23T10:41:59;22.60;99.90
47660;DHT22;33403;43.608;1.458;2023-05-23T10:44:28;22.50;99.90
47660;DHT22;33403;43.608;1.458;2023-05-23T10:46:59;22.40;99.90
47660;DHT22;33403;43.608;1.458;2023-05-23T10:49:47;22.30;99.90
47660;DHT22;33403;43.608;1.458;2023-05-23T10:52:16;22.00;99.90
47660;DHT22;33403;43.608;1.458;2023-05-23T10:54:51;22.00;99.90
47660;DHT22;33403;43.608;1.458;2023-05-23T10:57:23;22.00;99.90
47660;DHT22;33403;43.608;1.458;2023-05-23T10:59:50;22.10;99.90
47660;DHT22;33403;43.608;1.458;2023-05-23T11:02:24;22.20;99.90
47660;DHT22;33403;43.608;1.458;2023-05-23T11:05:19;22.50;99.90
47660;DHT22;33403;43.608;1.458;2023-05-23T11:08:07;22.90;99.90
47660;DHT22;33403;43.608;1.458;2023-05-23T11:13:20;23.10;99.90
47660;DHT22;33403;43.608;1.458;2023-05-23T11:15:46;23.40;99.90
47660;DHT22;33403;43.608;1.458;2023-05-23T11:18:20;23.40;99.90
47660;DHT22;33403;43.608;1.458;2023-05-23T11:20:46;23.40;99.90
47660;DHT22;33403;43.608;1.458;2023-05-23T11:23:12;23.60;99.90
47660;DHT22;33403;43.608;1.458;2023-05-23T11:25:47;23.70;99.90
47660;DHT22;33403;43.608;1.458;2023-05-23T11:28:13;23.70;99.90
47660;DHT22;33403;43.608;1.458;2023-05-23T11:30:39;24.30;99.90
47660;DHT22;33403;43.608;1.458;2023-05-23T11:33:07;24.30;99.90
47660;DHT22;33403;43.608;1.458;2023-05-23T11:35:34;24.00;99.90
47660;DHT22;33403;43.608;1.458;2023-05-23T11:38:02;23.70;99.90
47660;DHT22;33403;43.608;1.458;2023-05-23T11:40:39;23.50;99.90
47660;DHT22;33403;43.608;1.458;2023-05-23T11:43:07;23.50;99.90
47660;DHT22;33403;43.608;1.458;2023-05-23T11:45:35;23.50;99.90
47660;DHT22;33403;43.608;1.458;2023-05-23T11:48:05;23.20;99.90
47660;DHT22;33403;43.608;1.458;2023-05-23T11:50:31;23.20;99.90
47660;DHT22;33403;43.608;1.458;2023-05-23T11:52:56;23.30;99.90
47660;DHT22;33403;43.608;1.458;2023-05-23T11:55:22;23.50;99.90
47660;DHT22;33403;43.608;1.458;2023-05-23T11:57:49;23.70;99.90
47660;DHT22;33403;43.608;1.458;2023-05-23T12:00:16;23.60;99.90
47660;DHT22;33403;43.608;1.458;2023-05-23T12:02:44;23.50;99.90
47660;DHT22;33403;43.608;1.458;2023-05-23T12:05:13;23.20;99.90
47660;DHT22;33403;43.608;1.458;2023-05-23T12:07:46;23.10;99.90
47660;DHT22;33403;43.608;1.458;2023-05-23T12:10:14;22.90;99.90
47660;DHT22;33403;43.608;1.458;2023-05-23T12:12:41;22.70;99.90
47660;DHT22;33403;43.608;1.458;2023-05-23T12:15:08;22.70;99.90
47660;DHT22;33403;43.608;1.458;2023-05-23T12:17:35;22.80;99.90
47660;DHT22;33403;43.608;1.458;2023-05-23T12:20:03;23.10;99.90
47660;DHT22;33403;43.608;1.458;2023-05-23T12:22:29;23.30;99.90
47660;DHT22;33403;43.608;1.458;2023-05-23T12:24:55;23.30;99.90
47660;DHT22;33403;43.608;1.458;2023-05-23T12:27:28;23.20;99.90
47660;DHT22;33403;43.608;1.458;2023-05-23T12:32:42;22.90;99.90
47660;DHT22;33403;43.608;1.458;2023-05-23T12:35:08;22.80;99.90
47660;DHT22;33403;43.608;1.458;2023-05-23T12:37:55;22.70;99.90
47660;DHT22;33403;43.608;1.458;2023-05-23T12:40:21;22.50;99.90
47660;DHT22;33403;43.608;1.458;2023-05-23T12:42:54;22.30;99.90
47660;DHT22;33403;43.608;1.458;2023-05-23T12:45:22;22.60;99.90
47660;DHT22;33403;43.608;1.458;2023-05-23T12:47:48;22.90;99.90
47660;DHT22;33403;43.608;1.458;2023-05-23T12:50:14;23.30;99.90
47660;DHT22;33403;43.608;1.458;2023-05-23T12:52:40;23.40;99.90
47660;DHT22;33403;43.608;1.458;2023-05-23T12:55:09;23.40;99.90
47660;DHT22;33403;43.608;1.458;2023-05-23T12:57:35;23.30;99.90
47660;DHT22;33403;43.608;1.458;2023-05-23T13:00:01;23.10;99.90
47660;DHT22;33403;43.608;1.458;2023-05-23T13:02:27;23.00;99.90
47660;DHT22;33403;43.608;1.458;2023-05-23T13:04:53;23.20;99.90
47660;DHT22;33403;43.608;1.458;2023-05-23T13:07:19;23.30;99.90
47660;DHT22;33403;43.608;1.458;2023-05-23T13:09:44;23.30;99.90
47660;DHT22;33403;43.608;1.458;2023-05-23T13:12:10;23.40;99.90
47660;DHT22;33403;43.608;1.458;2023-05-23T13:14:36;23.40;99.90
47660;DHT22;33403;43.608;1.458;2023-05-23T13:17:02;23.50;99.90
47660;DHT22;33403;43.608;1.458;2023-05-23T13:19:28;23.60;99.90
47660;DHT22;33403;43.608;1.458;2023-05-23T13:21:54;23.60;99.90
47660;DHT22;33403;43.608;1.458;2023-05-23T13:24:20;23.60;99.90
47660;DHT22;33403;43.608;1.458;2023-05-23T13:26:45;23.60;99.90
47660;DHT22;33403;43.608;1.458;2023-05-23T13:29:11;23.70;99.90
47660;DHT22;33403;43.608;1.458;2023-05-23T13:31:37;23.80;99.90
47660;DHT22;33403;43.608;1.458;2023-05-23T13:34:02;23.80;99.90
47660;DHT22;33403;43.608;1.458;2023-05-23T13:36:28;23.90;99.90
47660;DHT22;33403;43.608;1.458;2023-05-23T13:38:54;24.00;99.90
47660;DHT22;33403;43.608;1.458;2023-05-23T13:41:20;24.00;99.90
47660;DHT22;33403;43.608;1.458;2023-05-23T13:43:46;23.80;99.90
47660;DHT22;33403;43.608;1.458;2023-05-23T13:46:12;23.60;99.90
47660;DHT22;33403;43.608;1.458;2023-05-23T13:48:38;23.60;99.90
47660;DHT22;33403;43.608;1.458;2023-05-23T13:51:04;23.60;99.90
47660;DHT22;33403;43.608;1.458;2023-05-23T13:53:29;23.50;99.90
47660;DHT22;33403;43.608;1.458;2023-05-23T13:55:55;23.40;99.90
47660;DHT22;33403;43.608;1.458;2023-05-23T13:58:21;23.20;99.90
47660;DHT22;33403;43.608;1.458;2023-05-23T14:00:47;23.20;99.90
47660;DHT22;33403;43.608;1.458;2023-05-23T14:03:13;23.00;99.90
47660;DHT22;33403;43.608;1.458;2023-05-23T14:05:40;22.80;99.90
47660;DHT22;33403;43.608;1.458;2023-05-23T14:08:05;22.70;99.90
47660;DHT22;33403;43.608;1.458;2023-05-23T14:10:31;22.60;99.90
47660;DHT22;33403;43.608;1.458;2023-05-23T14:12:59;22.60;99.90
47660;DHT22;33403;43.608;1.458;2023-05-23T14:15:25;22.60;99.90
47660;DHT22;33403;43.608;1.458;2023-05-23T14:17:52;22.70;99.90
47660;DHT22;33403;43.608;1.458;2023-05-23T14:20:22;22.90;99.90
47660;DHT22;33403;43.608;1.458;2023-05-23T14:22:49;23.10;99.90
47660;DHT22;33403;43.608;1.458;2023-05-23T14:25:16;23.20;99.90
47660;DHT22;33403;43.608;1.458;2023-05-23T14:27:42;23.30;99.90
47660;DHT22;33403;43.608;1.458;2023-05-23T14:30:08;23.40;99.90
47660;DHT22;33403;43.608;1.458;2023-05-23T14:32:34;23.60;99.90
47660;DHT22;33403;43.608;1.458;2023-05-23T14:35:04;23.80;99.90
47660;DHT22;33403;43.608;1.458;2023-05-23T14:37:30;23.90;99.90
47660;DHT22;33403;43.608;1.458;2023-05-23T14:39:56;24.00;99.90
47660;DHT22;33403;43.608;1.458;2023-05-23T14:42:21;24.10;99.90
47660;DHT22;33403;43.608;1.458;2023-05-23T14:44:47;24.30;99.90
47660;DHT22;33403;43.608;1.458;2023-05-23T14:47:12;24.50;99.90
47660;DHT22;33403;43.608;1.458;2023-05-23T14:49:38;24.50;99.90
47660;DHT22;33403;43.608;1.458;2023-05-23T14:52:04;24.60;99.90
47660;DHT22;33403;43.608;1.458;2023-05-23T14:54:30;24.70;99.90
47660;DHT22;33403;43.608;1.458;2023-05-23T14:56:55;24.70;99.90
47660;DHT22;33403;43.608;1.458;2023-05-23T14:59:22;24.70;99.90
47660;DHT22;33403;43.608;1.458;2023-05-23T15:01:47;24.60;99.90
47660;DHT22;33403;43.608;1.458;2023-05-23T15:04:13;24.40;99.90
47660;DHT22;33403;43.608;1.458;2023-05-23T15:06:40;24.40;99.90
47660;DHT22;33403;43.608;1.458;2023-05-23T15:09:06;24.40;99.90
47660;DHT22;33403;43.608;1.458;2023-05-23T15:11:32;24.30;99.90
47660;DHT22;33403;43.608;1.458;2023-05-23T15:13:59;24.30;99.90
47660;DHT22;33403;43.608;1.458;2023-05-23T15:16:25;24.30;99.90
47660;DHT22;33403;43.608;1.458;2023-05-23T15:18:51;24.30;99.90
47660;DHT22;33403;43.608;1.458;2023-05-23T15:21:17;24.20;99.90
47660;DHT22;33403;43.608;1.458;2023-05-23T15:23:43;24.30;99.90
47660;DHT22;33403;43.608;1.458;2023-05-23T15:26:08;24.20;99.90
47660;DHT22;33403;43.608;1.458;2023-05-23T15:28:34;24.20;99.90
47660;DHT22;33403;43.608;1.458;2023-05-23T15:31:00;24.10;99.90
47660;DHT22;33403;43.608;1.458;2023-05-23T15:33:25;24.00;99.90
47660;DHT22;33403;43.608;1.458;2023-05-23T15:35:51;24.00;99.90
47660;DHT22;33403;43.608;1.458;2023-05-23T15:38:18;24.00;99.90
47660;DHT22;33403;43.608;1.458;2023-05-23T15:40:43;23.90;99.90
47660;DHT22;33403;43.608;1.458;2023-05-23T15:43:11;24.00;99.90
47660;DHT22;33403;43.608;1.458;2023-05-23T15:45:36;24.10;99.90
47660;DHT22;33403;43.608;1.458;2023-05-23T15:48:02;24.20;99.90
47660;DHT22;33403;43.608;1.458;2023-05-23T15:50:28;24.20;99.90
47660;DHT22;33403;43.608;1.458;2023-05-23T15:52:53;24.10;99.90
47660;DHT22;33403;43.608;1.458;2023-05-23T15:55:19;24.10;99.90